Welcome to Northern Hawkes Bay. New Zealand.
PWS Header
      nz Flag



Hit Counter


W3C Valid W3C Valid logo


    Wairoa

Select any of the Stations below to visit their websites.










Historic Data from Weather Underground
Select the location of interest below. Wairoa is the default. Please have patience, this Data is slow to load in.
Northern Hawkes Bay Historical Data
Daily Summary for June 28, 2017 Units:  Metric    English   Both
« Previous Day
Next Day »
Daily Weekly Monthly Yearly Custom
  High: Low: Average:
Temperature: 15.9 °C 4.1 °C 8.8 °C
Dew Point: 10.2 °C 3.9 °C 7.5 °C
Humidity: 99% 65% 92%
Wind Speed: 11.1km/h 0.0km/h 3.3km/h
Wind Gust: 13.4km/h - -
Wind- - West
Pressure: 1024.3 hPa 1020.5 hPa -
Precipitation: 0.5 mm    
Historical Graphs
 
 
Tabular Data for June 28, 2017
Time Temperature Dew Point Pressure Wind Wind Speed Wind Gust Humidity Rainfall Rate (Hourly) solar
00:03 7.3 °C 6.8 °C 1020.5 hPa NNW 5.0 km/h 9.7 km/h 97% 0.0 mm 0 W/m2
00:08 7.4 °C 6.9 °C 1020.5 hPa NNW 6.1 km/h 7.2 km/h 97% 0.0 mm 0 W/m2
00:13 7.5 °C 7.1 °C 1020.5 hPa NNW 6.1 km/h 7.2 km/h 97% 0.0 mm 0 W/m2
00:18 7.6 °C 7.2 °C 1020.5 hPa NNW 6.1 km/h 9.7 km/h 97% 0.0 mm 0 W/m2
00:23 7.6 °C 7.2 °C 1020.5 hPa NNW 6.1 km/h 9.7 km/h 97% 0.0 mm 0 W/m2
00:28 7.6 °C 7.2 °C 1020.5 hPa NNW 3.5 km/h 9.7 km/h 97% 0.0 mm 0 W/m2
00:33 7.6 °C 7.2 °C 1020.5 hPa NNW 6.1 km/h 11.1 km/h 97% 0.0 mm 0 W/m2
00:39 7.6 °C 7.2 °C 1020.5 hPa NNW 6.1 km/h 11.1 km/h 97% 0.0 mm 0 W/m2
00:44 7.6 °C 7.2 °C 1020.5 hPa NNW 9.7 km/h 12.2 km/h 97% 0.0 mm 0 W/m2
00:49 7.7 °C 7.3 °C 1020.5 hPa NNW 7.2 km/h 12.2 km/h 97% 0.0 mm 0 W/m2
00:54 7.7 °C 7.3 °C 1020.5 hPa NNW 6.1 km/h 12.2 km/h 97% 0.0 mm 0 W/m2
00:59 7.6 °C 7.2 °C 1020.5 hPa NNW 3.5 km/h 11.1 km/h 97% 0.0 mm 0 W/m2
01:04 7.6 °C 7.2 °C 1020.9 hPa NNW 5.0 km/h 8.7 km/h 97% 0.0 mm 0 W/m2
01:09 7.5 °C 7.1 °C 1020.5 hPa NNW 5.0 km/h 8.7 km/h 97% 0.0 mm 0 W/m2
01:14 7.4 °C 6.9 °C 1020.5 hPa NNW 2.6 km/h 8.7 km/h 97% 0.0 mm 0 W/m2
01:20 7.4 °C 6.9 °C 1020.9 hPa NNW 2.6 km/h 7.2 km/h 97% 0.0 mm 0 W/m2
01:26 7.4 °C 6.9 °C 1020.9 hPa NNW 6.1 km/h 8.7 km/h 97% 0.0 mm 0 W/m2
01:31 7.4 °C 6.9 °C 1020.9 hPa NNW 3.5 km/h 8.7 km/h 97% 0.0 mm 0 W/m2
01:36 7.4 °C 6.9 °C 1020.9 hPa NNW 5.0 km/h 8.7 km/h 97% 0.0 mm 0 W/m2
01:41 7.4 °C 6.9 °C 1020.9 hPa NNW 3.5 km/h 8.7 km/h 97% 0.0 mm 0 W/m2
01:46 7.3 °C 6.8 °C 1020.9 hPa NNW 3.5 km/h 8.7 km/h 97% 0.0 mm 0 W/m2
01:51 7.4 °C 6.9 °C 1020.9 hPa NNW 5.0 km/h 7.2 km/h 97% 0.0 mm 0 W/m2
01:56 7.3 °C 6.8 °C 1021.2 hPa NNW 2.6 km/h 7.2 km/h 97% 0.0 mm 0 W/m2
02:01 7.2 °C 6.8 °C 1020.9 hPa WNW 2.6 km/h 6.1 km/h 97% 0.0 mm 0 W/m2
02:06 7.2 °C 6.8 °C 1021.2 hPa West 5.0 km/h 6.1 km/h 97% 0.0 mm 0 W/m2
02:11 7.2 °C 6.8 °C 1021.2 hPa NW 3.5 km/h 7.2 km/h 97% 0.0 mm 0 W/m2
02:16 7.2 °C 6.8 °C 1021.2 hPa NW 2.6 km/h 7.2 km/h 97% 0.0 mm 0 W/m2
02:21 7.2 °C 6.8 °C 1021.2 hPa NNW 1.1 km/h 6.1 km/h 97% 0.0 mm 0 W/m2
02:26 7.2 °C 6.8 °C 1021.2 hPa NNW 1.1 km/h 6.1 km/h 97% 0.0 mm 0 W/m2
02:31 7.2 °C 6.8 °C 1021.2 hPa NNW 2.6 km/h 3.5 km/h 97% 0.0 mm 0 W/m2
02:36 7.1 °C 6.7 °C 1021.2 hPa NNW 2.6 km/h 3.5 km/h 97% 0.0 mm 0 W/m2
02:41 7.0 °C 6.6 °C 1021.2 hPa North 1.1 km/h 3.5 km/h 97% 0.0 mm 0 W/m2
02:46 7.0 °C 6.6 °C 1021.2 hPa North 1.1 km/h 3.5 km/h 97% 0.0 mm 0 W/m2
02:51 7.0 °C 6.6 °C 1021.2 hPa North 2.6 km/h 3.5 km/h 97% 0.0 mm 0 W/m2
02:56 6.9 °C 6.6 °C 1020.9 hPa NNW 2.6 km/h 3.5 km/h 98% 0.0 mm 0 W/m2
03:01 6.8 °C 6.5 °C 1021.2 hPa NNW 1.1 km/h 3.5 km/h 98% 0.0 mm 0 W/m2
03:06 6.7 °C 6.4 °C 1021.2 hPa North 1.1 km/h 3.5 km/h 98% 0.0 mm 0 W/m2
03:11 6.6 °C 6.3 °C 1021.2 hPa North 2.6 km/h 5.0 km/h 98% 0.0 mm 0 W/m2
03:16 6.5 °C 6.2 °C 1021.2 hPa North 2.6 km/h 5.0 km/h 98% 0.0 mm 0 W/m2
03:21 6.4 °C 6.1 °C 1021.2 hPa North 1.1 km/h 3.5 km/h 98% 0.0 mm 0 W/m2
03:26 6.4 °C 6.1 °C 1021.2 hPa North 1.1 km/h 3.5 km/h 98% 0.0 mm 0 W/m2
03:31 6.3 °C 6.0 °C 1021.2 hPa North 1.1 km/h 3.5 km/h 98% 0.0 mm 0 W/m2
03:36 6.3 °C 6.0 °C 1021.2 hPa North 2.6 km/h 3.5 km/h 98% 0.0 mm 0 W/m2
03:41 6.2 °C 5.9 °C 1021.2 hPa North 2.6 km/h 3.5 km/h 98% 0.0 mm 0 W/m2
03:46 6.1 °C 5.8 °C 1021.2 hPa NNW 1.1 km/h 3.5 km/h 98% 0.0 mm 0 W/m2
03:51 6.0 °C 5.7 °C 1021.2 hPa NNW 1.1 km/h 3.5 km/h 98% 0.0 mm 0 W/m2
03:56 6.0 °C 5.7 °C 1020.9 hPa NNW 2.6 km/h 5.0 km/h 98% 0.0 mm 0 W/m2
04:01 5.9 °C 5.8 °C 1021.2 hPa NW 2.6 km/h 5.0 km/h 99% 0.0 mm 0 W/m2
04:06 5.9 °C 5.8 °C 1021.2 hPa NW 1.1 km/h 5.0 km/h 99% 0.0 mm 0 W/m2
04:11 5.8 °C 5.7 °C 1021.2 hPa NW 2.6 km/h 5.0 km/h 99% 0.0 mm 0 W/m2
04:16 5.8 °C 5.7 °C 1020.9 hPa NW 3.5 km/h 6.1 km/h 99% 0.0 mm 0 W/m2
04:21 5.8 °C 5.7 °C 1020.9 hPa NW 2.6 km/h 6.1 km/h 99% 0.0 mm 0 W/m2
04:26 5.9 °C 5.8 °C 1020.9 hPa NW 1.1 km/h 5.0 km/h 99% 0.0 mm 0 W/m2
04:31 5.8 °C 5.7 °C 1021.2 hPa NNW 2.6 km/h 5.0 km/h 99% 0.0 mm 0 W/m2
04:36 5.8 °C 5.7 °C 1021.2 hPa NNW 3.5 km/h 5.0 km/h 99% 0.0 mm 0 W/m2
04:41 5.7 °C 5.6 °C 1020.9 hPa NW 2.6 km/h 5.0 km/h 99% 0.0 mm 0 W/m2
04:46 5.8 °C 5.7 °C 1020.9 hPa NW 2.6 km/h 5.0 km/h 99% 0.0 mm 0 W/m2
04:51 5.8 °C 5.7 °C 1020.9 hPa NW 2.6 km/h 5.0 km/h 99% 0.0 mm 0 W/m2
04:56 5.8 °C 5.7 °C 1020.9 hPa NNW 1.1 km/h 5.0 km/h 99% 0.0 mm 0 W/m2
05:01 5.8 °C 5.7 °C 1020.9 hPa NNW 2.6 km/h 5.0 km/h 99% 0.0 mm 0 W/m2
05:06 5.7 °C 5.6 °C 1020.9 hPa North 2.6 km/h 5.0 km/h 99% 0.0 mm 0 W/m2
05:11 5.6 °C 5.4 °C 1020.9 hPa NNW 3.5 km/h 5.0 km/h 99% 0.0 mm 0 W/m2
05:16 5.6 °C 5.4 °C 1020.9 hPa NNW 2.6 km/h 5.0 km/h 99% 0.0 mm 0 W/m2
05:21 5.5 °C 5.3 °C 1020.9 hPa NNW 1.1 km/h 5.0 km/h 99% 0.0 mm 0 W/m2
05:26 5.4 °C 5.3 °C 1021.2 hPa NNW 2.6 km/h 6.1 km/h 99% 0.0 mm 0 W/m2
05:31 5.3 °C 5.2 °C 1020.9 hPa NNW 2.6 km/h 6.1 km/h 99% 0.0 mm 0 W/m2
05:36 5.3 °C 5.2 °C 1021.2 hPa North 1.1 km/h 5.0 km/h 99% 0.0 mm 0 W/m2
05:41 5.4 °C 5.3 °C 1020.9 hPa North 3.5 km/h 6.1 km/h 99% 0.0 mm 0 W/m2
05:46 5.3 °C 5.2 °C 1021.2 hPa NNW 2.6 km/h 6.1 km/h 99% 0.0 mm 0 W/m2
05:51 5.3 °C 5.2 °C 1021.2 hPa NNW 3.5 km/h 5.0 km/h 99% 0.0 mm 0 W/m2
05:56 5.2 °C 5.1 °C 1021.2 hPa NNW 2.6 km/h 6.1 km/h 99% 0.0 mm 0 W/m2
06:01 5.0 °C 4.8 °C 1021.2 hPa NNW 2.6 km/h 6.1 km/h 99% 0.0 mm 0 W/m2
06:06 4.9 °C 4.8 °C 1021.2 hPa NW 2.6 km/h 5.0 km/h 99% 0.0 mm 0 W/m2
06:11 4.8 °C 4.7 °C 1021.2 hPa NW 1.1 km/h 3.5 km/h 99% 0.0 mm 0 W/m2
06:16 4.8 °C 4.7 °C 1021.2 hPa NNW 3.5 km/h 5.0 km/h 99% 0.0 mm 0 W/m2
06:21 4.8 °C 4.7 °C 1021.6 hPa NNW 5.0 km/h 6.1 km/h 99% 0.0 mm 0 W/m2
06:26 4.8 °C 4.7 °C 1021.6 hPa NNW 5.0 km/h 7.2 km/h 99% 0.0 mm 0 W/m2
06:31 4.7 °C 4.6 °C 1021.2 hPa NNW 2.6 km/h 7.2 km/h 99% 0.0 mm 0 W/m2
06:36 4.6 °C 4.4 °C 1021.6 hPa NW 2.6 km/h 6.1 km/h 99% 0.0 mm 0 W/m2
06:41 4.6 °C 4.4 °C 1021.6 hPa NNW 3.5 km/h 6.1 km/h 99% 0.0 mm 0 W/m2
06:46 4.5 °C 4.3 °C 1021.6 hPa NNW 3.5 km/h 6.1 km/h 99% 0.0 mm 0 W/m2
06:51 4.5 °C 4.3 °C 1021.6 hPa NW 2.6 km/h 6.1 km/h 99% 0.0 mm 0 W/m2
06:56 4.3 °C 4.2 °C 1021.6 hPa NNW 2.6 km/h 6.1 km/h 99% 0.0 mm 0 W/m2
07:01 4.3 °C 4.2 °C 1021.9 hPa NNW 2.6 km/h 3.5 km/h 99% 0.0 mm 0 W/m2
07:06 4.2 °C 4.1 °C 1021.9 hPa NNW 3.5 km/h 5.0 km/h 99% 0.0 mm 0 W/m2
07:11 4.2 °C 4.1 °C 1021.6 hPa NW 2.6 km/h 5.0 km/h 99% 0.0 mm 0 W/m2
07:16 4.2 °C 4.1 °C 1021.9 hPa NNW 3.5 km/h 5.0 km/h 99% 0.0 mm 0 W/m2
07:21 4.1 °C 3.9 °C 1021.9 hPa NNW 5.0 km/h 6.1 km/h 99% 0.0 mm 0 W/m2
07:26 4.1 °C 3.9 °C 1021.9 hPa NNW 3.5 km/h 6.1 km/h 99% 0.0 mm 0 W/m2
07:31 4.1 °C 3.9 °C 1021.9 hPa NNW 5.0 km/h 7.2 km/h 99% 0.0 mm 0 W/m2
07:36 4.1 °C 3.9 °C 1021.9 hPa NNW 5.0 km/h 7.2 km/h 99% 0.0 mm 0 W/m2
07:41 4.1 °C 3.9 °C 1021.9 hPa NW 5.0 km/h 8.7 km/h 99% 0.0 mm 2 W/m2
07:46 4.1 °C 3.9 °C 1022.2 hPa NW 2.6 km/h 8.7 km/h 99% 0.0 mm 4 W/m2
07:51 4.1 °C 3.9 °C 1022.2 hPa NNW 3.5 km/h 6.1 km/h 99% 0.0 mm 5 W/m2
07:56 4.1 °C 3.9 °C 1022.2 hPa NNW 5.0 km/h 8.7 km/h 99% 0.0 mm 6 W/m2
08:01 4.1 °C 3.9 °C 1022.2 hPa NNW 3.5 km/h 8.7 km/h 99% 0.0 mm 9 W/m2
08:06 4.2 °C 4.1 °C 1022.2 hPa NNW 5.0 km/h 8.7 km/h 99% 0.0 mm 12 W/m2
08:11 4.3 °C 4.2 °C 1022.2 hPa NW 5.0 km/h 8.7 km/h 99% 0.0 mm 18 W/m2
08:16 4.3 °C 4.2 °C 1022.2 hPa NW 6.1 km/h 9.7 km/h 99% 0.0 mm 24 W/m2
08:21 4.5 °C 4.3 °C 1022.2 hPa NW 7.2 km/h 9.7 km/h 99% 0.0 mm 30 W/m2
08:26 4.7 °C 4.6 °C 1022.2 hPa NW 6.1 km/h 9.7 km/h 99% 0.0 mm 30 W/m2
08:31 4.9 °C 4.8 °C 1022.6 hPa North 3.5 km/h 9.7 km/h 99% 0.0 mm 35 W/m2
08:36 5.1 °C 4.9 °C 1022.2 hPa NNW 6.1 km/h 8.7 km/h 99% 0.0 mm 37 W/m2
08:41 5.3 °C 5.2 °C 1022.6 hPa NNW 5.0 km/h 9.7 km/h 99% 0.0 mm 47 W/m2
08:46 5.5 °C 5.3 °C 1022.6 hPa NNW 7.2 km/h 11.1 km/h 99% 0.0 mm 60 W/m2
08:51 5.7 °C 5.6 °C 1022.6 hPa NNW 6.1 km/h 11.1 km/h 99% 0.0 mm 105 W/m2
08:56 5.9 °C 5.8 °C 1022.9 hPa NNW 7.2 km/h 11.1 km/h 99% 0.0 mm 67 W/m2
09:01 6.0 °C 5.7 °C 1022.9 hPa NW 6.1 km/h 12.2 km/h 98% 0.0 mm 83 W/m2
09:06 6.2 °C 5.9 °C 1022.9 hPa NW 7.2 km/h 12.2 km/h 98% 0.0 mm 180 W/m2
09:11 6.4 °C 6.1 °C 1022.9 hPa NNW 3.5 km/h 12.2 km/h 98% 0.0 mm 67 W/m2
09:16 6.3 °C 6.0 °C 1022.9 hPa NNW 7.2 km/h 9.7 km/h 98% 0.0 mm 61 W/m2
09:21 6.3 °C 6.0 °C 1022.9 hPa NNW 5.0 km/h 9.7 km/h 98% 0.0 mm 137 W/m2
09:26 6.5 °C 6.2 °C 1022.9 hPa NNW 6.1 km/h 11.1 km/h 98% 0.3 mm 78 W/m2
09:31 6.6 °C 6.3 °C 1022.9 hPa NW 8.7 km/h 12.2 km/h 98% 0.3 mm 202 W/m2
09:36 6.9 °C 6.6 °C 1022.9 hPa NW 5.0 km/h 12.2 km/h 98% 0.3 mm 225 W/m2
09:41 7.2 °C 6.8 °C 1023.2 hPa NW 11.1 km/h 13.4 km/h 97% 0.3 mm 212 W/m2
09:46 7.4 °C 6.9 °C 1023.2 hPa NNW 9.7 km/h 13.4 km/h 97% 0.3 mm 184 W/m2
09:51 7.8 °C 7.3 °C 1023.2 hPa NNW 7.2 km/h 12.2 km/h 97% 0.3 mm 160 W/m2
09:56 8.2 °C 8.1 °C 1022.9 hPa NW 8.7 km/h 12.2 km/h 99% 0.3 mm 111 W/m2
10:01 8.3 °C 8.2 °C 1023.2 hPa NNW 9.7 km/h 12.2 km/h 99% 0.3 mm 103 W/m2
10:06 8.4 °C 8.3 °C 1023.2 hPa NNW 7.2 km/h 12.2 km/h 99% 0.3 mm 117 W/m2
10:11 8.7 °C 8.6 °C 1023.2 hPa NW 6.1 km/h 12.2 km/h 99% 0.3 mm 102 W/m2
10:16 9.2 °C 9.1 °C 1023.2 hPa NW 6.1 km/h 12.2 km/h 99% 0.3 mm 81 W/m2
10:21 9.4 °C 9.3 °C 1023.2 hPa NW 5.0 km/h 12.2 km/h 99% 0.3 mm 74 W/m2
10:26 10.1 °C 9.9 °C 1023.2 hPa NW 5.0 km/h 11.1 km/h 99% 0.0 mm 70 W/m2
10:31 10.1 °C 9.7 °C 1023.2 hPa NNW 7.2 km/h 11.1 km/h 97% 0.0 mm 65 W/m2
10:36 9.8 °C 9.1 °C 1023.2 hPa NNW 6.1 km/h 11.1 km/h 95% 0.0 mm 60 W/m2
10:41 9.7 °C 8.8 °C 1023.6 hPa NNW 6.1 km/h 11.1 km/h 94% 0.0 mm 64 W/m2
10:46 9.8 °C 8.7 °C 1023.6 hPa NNW 5.0 km/h 11.1 km/h 93% 0.0 mm 64 W/m2
10:51 10.1 °C 8.7 °C 1023.6 hPa NNW 3.5 km/h 9.7 km/h 91% 0.0 mm 64 W/m2
10:56 10.5 °C 8.9 °C 1023.6 hPa NNW 3.5 km/h 8.7 km/h 90% 0.0 mm 62 W/m2
11:01 10.6 °C 8.9 °C 1023.6 hPa NW 1.1 km/h 7.2 km/h 89% 0.0 mm 64 W/m2
11:06 10.7 °C 8.6 °C 1023.6 hPa NW 5.0 km/h 7.2 km/h 87% 0.0 mm 60 W/m2
11:11 10.4 °C 8.2 °C 1023.6 hPa NNW 3.5 km/h 9.7 km/h 86% 0.0 mm 64 W/m2
11:16 10.6 °C 8.3 °C 1023.6 hPa North 3.5 km/h 9.7 km/h 86% 0.0 mm 71 W/m2
11:21 10.9 °C 8.8 °C 1023.6 hPa NNW 2.6 km/h 7.2 km/h 87% 0.0 mm 72 W/m2
11:26 11.1 °C 8.5 °C 1023.2 hPa NNW 2.6 km/h 8.7 km/h 84% 0.0 mm 70 W/m2
11:31 11.4 °C 8.8 °C 1023.2 hPa NNW 5.0 km/h 8.7 km/h 84% 0.0 mm 74 W/m2
11:37 11.9 °C 9.3 °C 1023.2 hPa NW 1.1 km/h 8.7 km/h 84% 0.0 mm 76 W/m2
11:42 12.5 °C 9.5 °C 1023.2 hPa Calm   7.2 km/h 82% 0.0 mm 73 W/m2
11:47 12.7 °C 9.5 °C 1023.2 hPa NW 1.1 km/h 7.2 km/h 81% 0.0 mm 63 W/m2
11:52 12.5 °C 9.2 °C 1023.2 hPa Calm   7.2 km/h 80% 0.0 mm 61 W/m2
11:57 12.3 °C 9.1 °C 1022.9 hPa Calm   5.0 km/h 81% 0.0 mm 60 W/m2
12:02 12.5 °C 9.3 °C 1022.9 hPa Calm   2.6 km/h 81% 0.0 mm 61 W/m2
12:07 13.3 °C 10.1 °C 1022.9 hPa ESE 1.1 km/h 2.6 km/h 81% 0.0 mm 66 W/m2
12:12 13.8 °C 10.2 °C 1022.9 hPa Calm   2.6 km/h 79% 0.0 mm 71 W/m2
12:17 14.1 °C 9.7 °C 1022.9 hPa ENE 5.0 km/h 6.1 km/h 75% 0.0 mm 72 W/m2
12:22 13.9 °C 9.6 °C 1022.9 hPa ENE 2.6 km/h 7.2 km/h 75% 0.0 mm 70 W/m2
12:27 14.2 °C 9.6 °C 1022.9 hPa Calm   7.2 km/h 74% 0.0 mm 75 W/m2
12:32 15.2 °C 10.2 °C 1022.9 hPa East 3.5 km/h 5.0 km/h 72% 0.0 mm 77 W/m2
12:37 14.9 °C 9.3 °C 1022.6 hPa SE 3.5 km/h 8.7 km/h 69% 0.0 mm 70 W/m2
12:42 14.9 °C 9.7 °C 1022.6 hPa SSE 6.1 km/h 9.7 km/h 71% 0.0 mm 71 W/m2
12:47 15.0 °C 9.4 °C 1022.6 hPa SE 6.1 km/h 9.7 km/h 69% 0.0 mm 74 W/m2
12:52 14.2 °C 9.2 °C 1022.6 hPa SSE 5.0 km/h 9.7 km/h 72% 0.0 mm 74 W/m2
12:57 13.9 °C 9.2 °C 1022.6 hPa SSW 8.7 km/h 12.2 km/h 73% 0.0 mm 82 W/m2
13:02 13.6 °C 8.7 °C 1022.6 hPa South 7.2 km/h 12.2 km/h 72% 0.0 mm 76 W/m2
13:07 13.4 °C 8.7 °C 1022.2 hPa SSE 6.1 km/h 12.2 km/h 73% 0.0 mm 80 W/m2
13:12 13.4 °C 8.7 °C 1022.2 hPa South 7.2 km/h 9.7 km/h 73% 0.0 mm 77 W/m2
13:17 13.0 °C 8.5 °C 1022.2 hPa South 8.7 km/h 11.1 km/h 74% 0.0 mm 77 W/m2
13:22 12.9 °C 8.6 °C 1022.2 hPa South 6.1 km/h 11.1 km/h 75% 0.0 mm 75 W/m2
13:27 12.7 °C 8.2 °C 1021.9 hPa South 6.1 km/h 11.1 km/h 74% 0.0 mm 70 W/m2
13:32 12.6 °C 8.3 °C 1022.2 hPa South 5.0 km/h 11.1 km/h 75% 0.0 mm 73 W/m2
13:37 12.6 °C 8.5 °C 1022.2 hPa SSW 3.5 km/h 9.7 km/h 76% 0.0 mm 69 W/m2
13:42 12.6 °C 8.5 °C 1022.2 hPa South 6.1 km/h 9.7 km/h 76% 0.0 mm 75 W/m2
13:47 13.1 °C 8.9 °C 1022.2 hPa South 6.1 km/h 9.7 km/h 76% 0.0 mm 84 W/m2
13:52 13.5 °C 8.9 °C 1022.2 hPa South 6.1 km/h 11.1 km/h 74% 0.0 mm 103 W/m2
13:57 13.9 °C 9.3 °C 1022.2 hPa South 5.0 km/h 11.1 km/h 74% 0.0 mm 138 W/m2
14:02 13.9 °C 8.9 °C 1022.2 hPa South 5.0 km/h 11.1 km/h 72% 0.0 mm 212 W/m2
14:07 13.9 °C 9.2 °C 1022.2 hPa South 6.1 km/h 11.1 km/h 73% 0.0 mm 212 W/m2
14:12 13.7 °C 8.7 °C 1022.2 hPa South 3.5 km/h 11.1 km/h 72% 0.0 mm 229 W/m2
14:17 13.9 °C 9.2 °C 1022.2 hPa SSW 5.0 km/h 11.1 km/h 73% 0.0 mm 231 W/m2
14:23 14.1 °C 9.1 °C 1022.2 hPa SSW 5.0 km/h 8.7 km/h 72% 0.0 mm 221 W/m2
14:28 14.4 °C 9.2 °C 1022.2 hPa South 6.1 km/h 8.7 km/h 71% 0.0 mm 229 W/m2
14:33 15.0 °C 9.4 °C 1022.2 hPa SSE 6.1 km/h 8.7 km/h 69% 0.0 mm 225 W/m2
14:38 14.8 °C 8.9 °C 1022.2 hPa SSE 5.0 km/h 9.7 km/h 68% 0.0 mm 221 W/m2
14:43 15.1 °C 9.4 °C 1022.2 hPa SSE 5.0 km/h 9.7 km/h 69% 0.0 mm 215 W/m2
14:48 14.6 °C 9.2 °C 1022.2 hPa South 7.2 km/h 9.7 km/h 70% 0.0 mm 207 W/m2
14:53 14.4 °C 9.4 °C 1022.2 hPa South 5.0 km/h 11.1 km/h 72% 0.0 mm 201 W/m2
14:58 14.4 °C 9.2 °C 1022.2 hPa South 7.2 km/h 11.1 km/h 71% 0.0 mm 177 W/m2
15:03 13.7 °C 8.9 °C 1022.2 hPa South 8.7 km/h 11.1 km/h 73% 0.0 mm 175 W/m2
15:08 13.6 °C 9.3 °C 1022.2 hPa South 3.5 km/h 11.1 km/h 75% 0.0 mm 163 W/m2
15:13 13.7 °C 9.3 °C 1022.2 hPa South 5.0 km/h 11.1 km/h 75% 0.0 mm 151 W/m2
15:18 14.7 °C 10.1 °C 1022.2 hPa South 1.1 km/h 8.7 km/h 74% 0.0 mm 123 W/m2
15:23 14.8 °C 9.6 °C 1022.2 hPa South 2.6 km/h 6.1 km/h 71% 0.0 mm 126 W/m2
15:28 14.7 °C 9.3 °C 1022.2 hPa South 3.5 km/h 6.1 km/h 70% 0.0 mm 112 W/m2
15:33 14.3 °C 8.9 °C 1022.2 hPa SSW 3.5 km/h 7.2 km/h 70% 0.0 mm 103 W/m2
15:38 14.0 °C 8.6 °C 1022.2 hPa South 5.0 km/h 8.7 km/h 70% 0.0 mm 85 W/m2
15:43 13.6 °C 8.7 °C 1022.2 hPa SSW 5.0 km/h 8.7 km/h 72% 0.0 mm 71 W/m2
15:48 13.5 °C 8.8 °C 1022.2 hPa SSW 3.5 km/h 7.2 km/h 73% 0.0 mm 76 W/m2
15:53 14.0 °C 9.1 °C 1022.2 hPa South 2.6 km/h 6.1 km/h 72% 0.0 mm 78 W/m2
15:58 14.5 °C 9.1 °C 1022.2 hPa SSE 2.6 km/h 6.1 km/h 70% 0.0 mm 72 W/m2
16:03 15.1 °C 9.4 °C 1022.6 hPa South 1.1 km/h 6.1 km/h 69% 0.0 mm 64 W/m2
16:08 15.9 °C 9.8 °C 1022.6 hPa SSE 2.6 km/h 3.5 km/h 67% 0.0 mm 56 W/m2
16:13 15.7 °C 9.2 °C 1022.6 hPa SSE 2.6 km/h 3.5 km/h 65% 0.0 mm 48 W/m2
16:18 15.1 °C 8.6 °C 1022.6 hPa South 1.1 km/h 5.0 km/h 65% 0.0 mm 40 W/m2
16:23 14.7 °C 8.8 °C 1022.6 hPa South 2.6 km/h 5.0 km/h 68% 0.0 mm 32 W/m2
16:28 14.5 °C 8.9 °C 1022.2 hPa South 1.1 km/h 5.0 km/h 69% 0.0 mm 26 W/m2
16:33 13.6 °C 8.7 °C 1022.6 hPa SW 2.6 km/h 5.0 km/h 72% 0.0 mm 16 W/m2
16:38 12.2 °C 7.9 °C 1022.6 hPa Calm   3.5 km/h 75% 0.0 mm 10 W/m2
16:43 11.5 °C 8.0 °C 1022.6 hPa SW 1.1 km/h 3.5 km/h 79% 0.0 mm 6 W/m2
16:48 11.0 °C 8.1 °C 1022.6 hPa Calm   2.6 km/h 82% 0.0 mm 3 W/m2
16:53 10.7 °C 7.9 °C 1022.6 hPa Calm   2.6 km/h 83% 0.0 mm 1 W/m2
16:58 10.4 °C 7.8 °C 1022.6 hPa Calm   1.1 km/h 84% 0.0 mm 0 W/m2
17:03 10.2 °C 7.6 °C 1022.6 hPa Calm   1.1 km/h 84% 0.0 mm 0 W/m2
17:08 10.0 °C 7.4 °C 1022.6 hPa NW 2.6 km/h 3.5 km/h 84% 0.0 mm 0 W/m2
17:13 9.8 °C 7.7 °C 1022.6 hPa NW 2.6 km/h 5.0 km/h 87% 0.0 mm 0 W/m2
17:18 9.4 °C 7.7 °C 1022.6 hPa NW 1.1 km/h 5.0 km/h 89% 0.0 mm 0 W/m2
17:23 9.3 °C 7.7 °C 1022.6 hPa NNW 1.1 km/h 3.5 km/h 90% 0.0 mm 0 W/m2
17:28 9.1 °C 7.7 °C 1022.6 hPa Calm   2.6 km/h 91% 0.0 mm 0 W/m2
17:33 8.9 °C 7.8 °C 1022.6 hPa Calm   2.6 km/h 93% 0.0 mm 0 W/m2
17:38 8.8 °C 7.9 °C 1022.6 hPa Calm     94% 0.0 mm 0 W/m2
17:43 8.8 °C 8.1 °C 1022.6 hPa North 3.5 km/h 5.0 km/h 95% 0.0 mm 0 W/m2
17:48 8.6 °C 7.8 °C 1022.9 hPa North 2.6 km/h 5.0 km/h 95% 0.0 mm 0 W/m2
17:53 8.6 °C 8.0 °C 1022.9 hPa North 2.6 km/h 5.0 km/h 96% 0.0 mm 0 W/m2
17:58 8.5 °C 7.9 °C 1022.9 hPa North 2.6 km/h 3.5 km/h 96% 0.0 mm 0 W/m2
18:03 8.5 °C 7.9 °C 1023.2 hPa North 2.6 km/h 3.5 km/h 96% 0.0 mm 0 W/m2
18:08 8.4 °C 7.8 °C 1023.2 hPa North 2.6 km/h 3.5 km/h 96% 0.0 mm 0 W/m2
18:13 8.2 °C 7.6 °C 1023.2 hPa North 1.1 km/h 3.5 km/h 96% 0.0 mm 0 W/m2
18:18 8.0 °C 7.4 °C 1023.2 hPa North 1.1 km/h 3.5 km/h 96% 0.0 mm 0 W/m2
18:23 7.9 °C 7.4 °C 1023.2 hPa Calm   3.5 km/h 97% 0.0 mm 0 W/m2
18:28 8.0 °C 7.6 °C 1023.2 hPa Calm   2.6 km/h 97% 0.0 mm 0 W/m2
18:33 8.0 °C 7.6 °C 1023.2 hPa NNE 1.1 km/h 3.5 km/h 97% 0.0 mm 0 W/m2
18:38 8.1 °C 7.7 °C 1023.2 hPa Calm   3.5 km/h 97% 0.0 mm 0 W/m2
18:43 8.2 °C 7.9 °C 1023.2 hPa Calm   3.5 km/h 98% 0.0 mm 0 W/m2
18:48 8.2 °C 7.9 °C 1023.2 hPa NNW 2.6 km/h 3.5 km/h 98% 0.0 mm 0 W/m2
18:53 8.3 °C 8.0 °C 1023.2 hPa NW 2.6 km/h 5.0 km/h 98% 0.0 mm 0 W/m2
18:58 8.3 °C 8.0 °C 1023.2 hPa NW 3.5 km/h 5.0 km/h 98% 0.0 mm 0 W/m2
19:03 8.4 °C 8.3 °C 1023.2 hPa NW 5.0 km/h 7.2 km/h 99% 0.0 mm 0 W/m2
19:08 8.4 °C 8.3 °C 1023.6 hPa NW 5.0 km/h 7.2 km/h 99% 0.0 mm 0 W/m2
19:13 8.5 °C 8.3 °C 1023.6 hPa NW 2.6 km/h 8.7 km/h 99% 0.0 mm 0 W/m2
19:18 8.5 °C 8.3 °C 1023.2 hPa NW 3.5 km/h 8.7 km/h 99% 0.0 mm 0 W/m2
19:23 8.5 °C 8.3 °C 1023.6 hPa NNW 2.6 km/h 6.1 km/h 99% 0.0 mm 0 W/m2
19:28 8.7 °C 8.6 °C 1023.2 hPa NNW 1.1 km/h 6.1 km/h 99% 0.0 mm 0 W/m2
19:33 8.7 °C 8.6 °C 1023.2 hPa Calm   3.5 km/h 99% 0.0 mm 0 W/m2
19:38 8.7 °C 8.6 °C 1023.2 hPa Calm   2.6 km/h 99% 0.0 mm 0 W/m2
19:43 8.7 °C 8.6 °C 1023.6 hPa Calm   1.1 km/h 99% 0.0 mm 0 W/m2
19:48 8.5 °C 8.3 °C 1023.2 hPa Calm   3.5 km/h 99% 0.0 mm 0 W/m2
19:53 8.5 °C 8.3 °C 1023.6 hPa NNE 2.6 km/h 5.0 km/h 99% 0.0 mm 0 W/m2
19:58 8.5 °C 8.3 °C 1023.6 hPa North 2.6 km/h 6.1 km/h 99% 0.0 mm 0 W/m2
20:03 8.5 °C 8.3 °C 1023.6 hPa North 2.6 km/h 7.2 km/h 99% 0.0 mm 0 W/m2
20:08 8.5 °C 8.3 °C 1023.6 hPa NNW 1.1 km/h 7.2 km/h 99% 0.0 mm 0 W/m2
20:13 8.5 °C 8.3 °C 1023.9 hPa Calm   5.0 km/h 99% 0.0 mm 0 W/m2
20:18 8.7 °C 8.6 °C 1023.9 hPa NNW 2.6 km/h 5.0 km/h 99% 0.0 mm 0 W/m2
20:23 8.7 °C 8.6 °C 1023.6 hPa NW 3.5 km/h 5.0 km/h 99% 0.0 mm 0 W/m2
20:28 8.7 °C 8.6 °C 1023.9 hPa NW 2.6 km/h 5.0 km/h 99% 0.0 mm 0 W/m2
20:33 8.7 °C 8.6 °C 1023.9 hPa NW 1.1 km/h 5.0 km/h 99% 0.0 mm 0 W/m2
20:38 8.7 °C 8.6 °C 1023.9 hPa NNW 2.6 km/h 5.0 km/h 99% 0.0 mm 0 W/m2
20:43 8.7 °C 8.6 °C 1023.6 hPa NNW 3.5 km/h 5.0 km/h 99% 0.0 mm 0 W/m2
20:48 8.7 °C 8.6 °C 1023.9 hPa NW 3.5 km/h 5.0 km/h 99% 0.0 mm 0 W/m2
20:53 8.7 °C 8.6 °C 1023.9 hPa NW 1.1 km/h 5.0 km/h 99% 0.0 mm 0 W/m2
20:58 8.7 °C 8.6 °C 1023.9 hPa NNW 2.6 km/h 5.0 km/h 99% 0.0 mm 0 W/m2
21:03 8.7 °C 8.6 °C 1023.9 hPa North 1.1 km/h 6.1 km/h 99% 0.0 mm 0 W/m2
21:08 8.7 °C 8.6 °C 1023.9 hPa North 2.6 km/h 6.1 km/h 99% 0.0 mm 0 W/m2
21:13 8.7 °C 8.6 °C 1023.9 hPa North 2.6 km/h 5.0 km/h 99% 0.0 mm 0 W/m2
21:18 8.7 °C 8.6 °C 1023.9 hPa North 2.6 km/h 5.0 km/h 99% 0.0 mm 0 W/m2
21:23 8.8 °C 8.7 °C 1023.9 hPa North 2.6 km/h 5.0 km/h 99% 0.0 mm 0 W/m2
21:28 8.8 °C 8.7 °C 1023.9 hPa NNW 5.0 km/h 6.1 km/h 99% 0.0 mm 0 W/m2
21:33 8.9 °C 8.8 °C 1023.9 hPa NNW 3.5 km/h 6.1 km/h 99% 0.0 mm 0 W/m2
21:38 8.9 °C 8.8 °C 1023.9 hPa NW 2.6 km/h 6.1 km/h 99% 0.0 mm 0 W/m2
21:43 8.9 °C 8.8 °C 1023.9 hPa NNW 2.6 km/h 5.0 km/h 99% 0.0 mm 0 W/m2
21:48 8.9 °C 8.8 °C 1023.9 hPa NNW 1.1 km/h 5.0 km/h 99% 0.0 mm 0 W/m2
21:53 8.9 °C 8.8 °C 1023.9 hPa NNW 2.6 km/h 5.0 km/h 99% 0.0 mm 0 W/m2
21:58 9.0 °C 8.8 °C 1023.9 hPa NNW 2.6 km/h 5.0 km/h 99% 0.0 mm 0 W/m2
22:03 9.0 °C 8.8 °C 1023.9 hPa NNW 2.6 km/h 5.0 km/h 99% 0.3 mm 0 W/m2
22:08 8.9 °C 8.8 °C 1023.9 hPa NNW 1.1 km/h 5.0 km/h 99% 0.3 mm 0 W/m2
22:13 8.9 °C 8.8 °C 1023.9 hPa NNW 1.1 km/h 5.0 km/h 99% 0.3 mm 0 W/m2
22:18 8.9 °C 8.8 °C 1024.3 hPa NNW 2.6 km/h 3.5 km/h 99% 0.3 mm 0 W/m2
22:23 8.9 °C 8.8 °C 1024.3 hPa NNW 1.1 km/h 3.5 km/h 99% 0.3 mm 0 W/m2
22:28 8.8 °C 8.7 °C 1024.3 hPa NNW 2.6 km/h 3.5 km/h 99% 0.3 mm 0 W/m2
22:33 8.9 °C 8.8 °C 1024.3 hPa NW 1.1 km/h 3.5 km/h 99% 0.3 mm 0 W/m2
22:38 8.8 °C 8.7 °C 1024.3 hPa NW 1.1 km/h 3.5 km/h 99% 0.3 mm 0 W/m2
22:43 8.8 °C 8.7 °C 1024.3 hPa NNW 1.1 km/h 3.5 km/h 99% 0.3 mm 0 W/m2
22:48 8.8 °C 8.7 °C 1024.3 hPa NW 1.1 km/h 3.5 km/h 99% 0.3 mm 0 W/m2
22:53 8.7 °C 8.6 °C 1024.3 hPa NW 1.1 km/h 3.5 km/h 99% 0.3 mm 0 W/m2
22:58 8.7 °C 8.6 °C 1024.3 hPa NNW 1.1 km/h 3.5 km/h 99% 0.3 mm 0 W/m2
23:03 8.7 °C 8.6 °C 1024.3 hPa NNW 1.1 km/h 3.5 km/h 99% 0.0 mm 0 W/m2
23:08 8.7 °C 8.6 °C 1024.3 hPa NNW 1.1 km/h 3.5 km/h 99% 0.0 mm 0 W/m2
23:13 8.7 °C 8.6 °C 1024.3 hPa NNW 1.1 km/h 3.5 km/h 99% 0.0 mm 0 W/m2
23:18 8.7 °C 8.6 °C 1024.3 hPa North 2.6 km/h 3.5 km/h 99% 0.0 mm 0 W/m2
23:23 8.7 °C 8.6 °C 1024.3 hPa North 1.1 km/h 3.5 km/h 99% 0.0 mm 0 W/m2
23:28 8.7 °C 8.6 °C 1024.3 hPa NNW 1.1 km/h 3.5 km/h 99% 0.0 mm 0 W/m2
23:33 8.7 °C 8.6 °C 1024.3 hPa NW 1.1 km/h 3.5 km/h 99% 0.0 mm 0 W/m2
23:38 8.7 °C 8.6 °C 1024.3 hPa Calm   3.5 km/h 99% 0.0 mm 0 W/m2
23:43 8.7 °C 8.6 °C 1024.3 hPa North 1.1 km/h 2.6 km/h 99% 0.0 mm 0 W/m2
23:48 8.7 °C 8.6 °C 1024.3 hPa North 1.1 km/h 3.5 km/h 99% 0.0 mm 0 W/m2
23:53 8.6 °C 8.4 °C 1024.3 hPa North 1.1 km/h 3.5 km/h 99% 0.0 mm 0 W/m2
23:58 8.6 °C 8.4 °C 1023.9 hPa Calm   3.5 km/h 99% 0.0 mm 0 W/m2
Northern Hawkes Bay. New Zealand Historic Data
Compliments of Weather Underground - 2 mb